JST706 YMHB-YMML
Flight info
| Callsign | JST706 |
|---|---|
| Flight time | 0h 58m |
| Altitude | 36000 |
| Route | LATUM H111 LT H215 RAZZI |
| Aircraft | A320/M-SDE3FGHIRWYZ/LB1 |
Departure
| Time | 2026-04-24 07:13 |
|---|---|
| Airport | Hobart International Airport (YMHB) |
Arrival
| Time | 2026-04-24 08:11 |
|---|---|
| Airport | Melbourne Airport (YMML) |
| Time | Latitude | Longitude | Altitude | Speed | Heading |
|---|---|---|---|---|---|
| 2026-04-24 06:24 | -42.83745 | 147.50699 | 22 ft | 0 kts | 236° |
| 2026-04-24 07:04 | -42.83735 | 147.50719 | 23 ft | 4 kts | 235° |
| 2026-04-24 07:04 | -42.83723 | 147.50742 | 24 ft | 4 kts | 223° |
| 2026-04-24 07:04 | -42.83704 | 147.50752 | 23 ft | 4 kts | 154° |
| 2026-04-24 07:04 | -42.83683 | 147.50731 | 22 ft | 3 kts | 135° |
| 2026-04-24 07:05 | -42.83681 | 147.50728 | 22 ft | 0 kts | 135° |
| 2026-04-24 07:07 | -42.83701 | 147.50770 | 22 ft | 7 kts | 104° |
| 2026-04-24 07:08 | -42.83679 | 147.50840 | 22 ft | 10 kts | 64° |
| 2026-04-24 07:08 | -42.83707 | 147.50935 | 22 ft | 13 kts | 131° |
| 2026-04-24 07:08 | -42.83775 | 147.51027 | 23 ft | 15 kts | 135° |
| 2026-04-24 07:08 | -42.83852 | 147.51132 | 22 ft | 17 kts | 132° |
| 2026-04-24 07:09 | -42.83811 | 147.51263 | 23 ft | 18 kts | 44° |
| 2026-04-24 07:09 | -42.83765 | 147.51387 | 22 ft | 9 kts | 123° |
| 2026-04-24 07:09 | -42.83814 | 147.51445 | 22 ft | 11 kts | 132° |
| 2026-04-24 07:09 | -42.83880 | 147.51538 | 24 ft | 16 kts | 134° |
| 2026-04-24 07:10 | -42.83969 | 147.51660 | 23 ft | 20 kts | 135° |
| 2026-04-24 07:10 | -42.84078 | 147.51811 | 22 ft | 24 kts | 135° |
| 2026-04-24 07:10 | -42.84208 | 147.51989 | 24 ft | 28 kts | 135° |
| 2026-04-24 07:10 | -42.84358 | 147.52189 | 24 ft | 32 kts | 135° |
| 2026-04-24 07:11 | -42.84497 | 147.52303 | 22 ft | 20 kts | 169° |
| 2026-04-24 07:11 | -42.84584 | 147.52405 | 22 ft | 16 kts | 80° |
| 2026-04-24 07:11 | -42.84517 | 147.52404 | 22 ft | 6 kts | 311° |
| 2026-04-24 07:11 | -42.84506 | 147.52387 | 23 ft | 0 kts | 313° |
| 2026-04-24 07:12 | -42.84505 | 147.52386 | 23 ft | 2 kts | 313° |
| 2026-04-24 07:12 | -42.84395 | 147.52233 | 23 ft | 62 kts | 315° |
| 2026-04-24 07:12 | -42.83885 | 147.51547 | 27 ft | 139 kts | 315° |
| 2026-04-24 07:12 | -42.83136 | 147.50533 | 559 ft | 157 kts | 317° |
| 2026-04-24 07:13 | -42.82365 | 147.49473 | 1417 ft | 157 kts | 315° |
| 2026-04-24 07:13 | -42.81601 | 147.48441 | 2212 ft | 154 kts | 314° |
| 2026-04-24 07:13 | -42.80807 | 147.47368 | 2514 ft | 172 kts | 314° |
| 2026-04-24 07:13 | -42.79901 | 147.46145 | 2727 ft | 195 kts | 314° |
| 2026-04-24 07:14 | -42.78878 | 147.44752 | 3044 ft | 221 kts | 314° |
| 2026-04-24 07:14 | -42.77739 | 147.43191 | 3514 ft | 242 kts | 314° |
| 2026-04-24 07:14 | -42.76539 | 147.41539 | 4376 ft | 247 kts | 314° |
| 2026-04-24 07:14 | -42.75319 | 147.39861 | 5301 ft | 251 kts | 314° |
| 2026-04-24 07:15 | -42.74081 | 147.38160 | 6213 ft | 254 kts | 314° |
| 2026-04-24 07:15 | -42.72820 | 147.36431 | 7038 ft | 260 kts | 314° |
| 2026-04-24 07:15 | -42.71534 | 147.34676 | 7868 ft | 264 kts | 314° |
| 2026-04-24 07:15 | -42.70228 | 147.32892 | 8688 ft | 268 kts | 314° |
| 2026-04-24 07:16 | -42.68899 | 147.31078 | 9500 ft | 273 kts | 314° |
| 2026-04-24 07:16 | -42.67543 | 147.29231 | 10263 ft | 280 kts | 314° |
| 2026-04-24 07:16 | -42.66124 | 147.27294 | 10614 ft | 300 kts | 314° |
| 2026-04-24 07:16 | -42.64600 | 147.25223 | 10984 ft | 316 kts | 314° |
| 2026-04-24 07:17 | -42.63053 | 147.23111 | 11628 ft | 321 kts | 314° |
| 2026-04-24 07:17 | -42.61437 | 147.20935 | 12356 ft | 324 kts | 317° |
| 2026-04-24 07:17 | -42.59522 | 147.19293 | 13068 ft | 330 kts | 336° |
| 2026-04-24 07:17 | -42.57291 | 147.18613 | 13738 ft | 339 kts | 355° |
| 2026-04-24 07:18 | -42.54938 | 147.19067 | 14405 ft | 349 kts | 15° |
| 2026-04-24 07:18 | -42.52761 | 147.20632 | 14996 ft | 359 kts | 30° |
| 2026-04-24 07:18 | -42.50684 | 147.22531 | 15618 ft | 362 kts | 30° |
| 2026-04-24 07:18 | -42.48590 | 147.24456 | 16219 ft | 365 kts | 30° |
| 2026-04-24 07:19 | -42.46484 | 147.26418 | 16804 ft | 369 kts | 30° |
| 2026-04-24 07:19 | -42.44368 | 147.28419 | 17414 ft | 372 kts | 31° |
| 2026-04-24 07:19 | -42.42238 | 147.30446 | 18018 ft | 375 kts | 31° |
| 2026-04-24 07:19 | -42.40091 | 147.32487 | 18604 ft | 379 kts | 31° |
| 2026-04-24 07:20 | -42.37924 | 147.34544 | 19130 ft | 382 kts | 31° |
| 2026-04-24 07:20 | -42.35702 | 147.36526 | 19650 ft | 382 kts | 24° |
| 2026-04-24 07:20 | -42.33275 | 147.37951 | 20158 ft | 380 kts | 13° |
| 2026-04-24 07:20 | -42.30705 | 147.38709 | 20686 ft | 377 kts | 2° |
| 2026-04-24 07:21 | -42.28093 | 147.38791 | 21198 ft | 375 kts | 351° |
| 2026-04-24 07:21 | -42.25521 | 147.38264 | 21655 ft | 375 kts | 346° |
| 2026-04-24 07:21 | -42.22942 | 147.37629 | 22121 ft | 378 kts | 346° |
| 2026-04-24 07:21 | -42.20338 | 147.37003 | 22602 ft | 382 kts | 347° |
| 2026-04-24 07:22 | -42.17712 | 147.36376 | 23094 ft | 384 kts | 347° |
| 2026-04-24 07:22 | -42.15073 | 147.35747 | 23578 ft | 387 kts | 346° |
| 2026-04-24 07:22 | -42.12446 | 147.35117 | 24031 ft | 389 kts | 346° |
| 2026-04-24 07:22 | -42.09771 | 147.34475 | 24419 ft | 392 kts | 346° |
| 2026-04-24 07:23 | -42.07077 | 147.33829 | 24804 ft | 395 kts | 346° |
| 2026-04-24 07:23 | -42.04363 | 147.33179 | 25184 ft | 398 kts | 347° |
| 2026-04-24 07:23 | -42.01623 | 147.32521 | 25491 ft | 402 kts | 347° |
| 2026-04-24 07:23 | -41.98853 | 147.31857 | 25853 ft | 405 kts | 347° |
| 2026-04-24 07:24 | -41.96070 | 147.31194 | 26244 ft | 407 kts | 347° |
| 2026-04-24 07:24 | -41.93270 | 147.30528 | 26627 ft | 410 kts | 347° |
| 2026-04-24 07:24 | -41.90452 | 147.29859 | 26992 ft | 412 kts | 347° |
| 2026-04-24 07:24 | -41.87622 | 147.29188 | 27350 ft | 415 kts | 347° |
| 2026-04-24 07:25 | -41.84772 | 147.28510 | 27707 ft | 418 kts | 347° |
| 2026-04-24 07:25 | -41.81898 | 147.27825 | 28060 ft | 420 kts | 347° |
| 2026-04-24 07:25 | -41.79005 | 147.27136 | 28415 ft | 423 kts | 347° |
| 2026-04-24 07:25 | -41.76101 | 147.26445 | 28771 ft | 426 kts | 347° |
| 2026-04-24 07:26 | -41.73175 | 147.25749 | 29113 ft | 428 kts | 347° |
| 2026-04-24 07:26 | -41.70268 | 147.25064 | 29501 ft | 430 kts | 347° |
| 2026-04-24 07:26 | -41.67273 | 147.24360 | 29890 ft | 432 kts | 347° |
| 2026-04-24 07:26 | -41.64304 | 147.23658 | 30245 ft | 435 kts | 347° |
| 2026-04-24 07:27 | -41.61357 | 147.22961 | 30561 ft | 437 kts | 347° |
| 2026-04-24 07:27 | -41.58352 | 147.22252 | 30811 ft | 441 kts | 347° |
| 2026-04-24 07:27 | -41.55331 | 147.21493 | 31084 ft | 442 kts | 343° |
| 2026-04-24 07:27 | -41.52418 | 147.20261 | 31491 ft | 437 kts | 335° |
| 2026-04-24 07:28 | -41.49605 | 147.18734 | 31975 ft | 435 kts | 335° |
| 2026-04-24 07:28 | -41.46813 | 147.17214 | 32469 ft | 432 kts | 335° |
| 2026-04-24 07:28 | -41.44044 | 147.15706 | 33021 ft | 428 kts | 335° |
| 2026-04-24 07:28 | -41.41291 | 147.14210 | 33554 ft | 425 kts | 335° |
| 2026-04-24 07:29 | -41.38558 | 147.12727 | 34047 ft | 423 kts | 335° |
| 2026-04-24 07:29 | -41.35834 | 147.11249 | 34470 ft | 422 kts | 335° |
| 2026-04-24 07:29 | -41.33110 | 147.09772 | 34807 ft | 423 kts | 335° |
| 2026-04-24 07:29 | -41.30389 | 147.08298 | 35163 ft | 422 kts | 335° |
| 2026-04-24 07:30 | -41.27676 | 147.06831 | 35531 ft | 421 kts | 335° |
| 2026-04-24 07:30 | -41.24966 | 147.05368 | 35887 ft | 419 kts | 335° |
| 2026-04-24 07:30 | -41.23176 | 147.04404 | 36161 ft | 418 kts | 335° |
| 2026-04-24 07:30 | -41.20484 | 147.02960 | 36363 ft | 417 kts | 335° |
| 2026-04-24 07:31 | -41.15208 | 147.00141 | 36403 ft | 403 kts | 335° |
| 2026-04-24 07:31 | -41.10014 | 146.97353 | 36397 ft | 403 kts | 335° |
| 2026-04-24 07:32 | -41.04811 | 146.94553 | 36408 ft | 404 kts | 335° |
| 2026-04-24 07:32 | -40.99608 | 146.91760 | 36407 ft | 402 kts | 335° |
| 2026-04-24 07:33 | -40.94413 | 146.88978 | 36408 ft | 402 kts | 335° |
| 2026-04-24 07:33 | -40.89255 | 146.86221 | 36406 ft | 403 kts | 335° |
| 2026-04-24 07:34 | -40.84049 | 146.83461 | 36394 ft | 403 kts | 335° |
| 2026-04-24 07:34 | -40.78825 | 146.80693 | 36403 ft | 406 kts | 335° |
| 2026-04-24 07:35 | -40.73491 | 146.77855 | 36409 ft | 421 kts | 335° |
| 2026-04-24 07:35 | -40.67979 | 146.74925 | 36402 ft | 430 kts | 335° |
| 2026-04-24 07:36 | -40.62406 | 146.71978 | 36402 ft | 431 kts | 336° |
| 2026-04-24 07:36 | -40.56837 | 146.69038 | 36406 ft | 432 kts | 335° |
| 2026-04-24 07:37 | -40.51238 | 146.66094 | 36403 ft | 433 kts | 336° |
| 2026-04-24 07:37 | -40.45640 | 146.63161 | 36407 ft | 433 kts | 336° |
| 2026-04-24 07:38 | -40.40041 | 146.60221 | 36399 ft | 433 kts | 336° |
| 2026-04-24 07:38 | -40.34434 | 146.57285 | 36402 ft | 434 kts | 336° |
| 2026-04-24 07:39 | -40.28814 | 146.54338 | 36402 ft | 435 kts | 336° |
| 2026-04-24 07:39 | -40.23206 | 146.51405 | 36424 ft | 433 kts | 336° |
| 2026-04-24 07:40 | -40.17614 | 146.48483 | 36413 ft | 432 kts | 336° |
| 2026-04-24 07:40 | -40.12025 | 146.45569 | 36419 ft | 432 kts | 336° |
| 2026-04-24 07:41 | -40.06436 | 146.42675 | 36424 ft | 432 kts | 336° |
| 2026-04-24 07:41 | -40.00881 | 146.39798 | 36427 ft | 432 kts | 336° |
| 2026-04-24 07:42 | -39.95292 | 146.36912 | 36420 ft | 432 kts | 336° |
| 2026-04-24 07:42 | -39.89714 | 146.34038 | 36429 ft | 430 kts | 336° |
| 2026-04-24 07:43 | -39.84146 | 146.31185 | 36432 ft | 429 kts | 336° |
| 2026-04-24 07:43 | -39.78582 | 146.28334 | 36433 ft | 429 kts | 336° |
| 2026-04-24 07:44 | -39.73027 | 146.25496 | 36400 ft | 430 kts | 336° |
| 2026-04-24 07:44 | -39.67461 | 146.22646 | 36412 ft | 430 kts | 336° |
| 2026-04-24 07:45 | -39.61933 | 146.19824 | 36418 ft | 429 kts | 336° |
| 2026-04-24 07:45 | -39.56367 | 146.16991 | 36423 ft | 429 kts | 336° |
| 2026-04-24 07:46 | -39.50808 | 146.14161 | 36427 ft | 429 kts | 336° |
| 2026-04-24 07:46 | -39.45275 | 146.11361 | 36404 ft | 419 kts | 336° |
| 2026-04-24 07:47 | -39.39906 | 146.08654 | 36404 ft | 412 kts | 336° |
| 2026-04-24 07:47 | -39.34578 | 146.05960 | 36404 ft | 411 kts | 336° |
| 2026-04-24 07:48 | -39.29256 | 146.03269 | 36397 ft | 410 kts | 336° |
| 2026-04-24 07:48 | -39.26582 | 146.01917 | 36257 ft | 418 kts | 336° |
| 2026-04-24 07:48 | -39.23847 | 146.00536 | 36004 ft | 425 kts | 336° |
| 2026-04-24 07:49 | -39.21081 | 145.99141 | 35752 ft | 428 kts | 336° |
| 2026-04-24 07:49 | -39.18293 | 145.97741 | 35505 ft | 430 kts | 336° |
| 2026-04-24 07:49 | -39.15497 | 145.96341 | 34930 ft | 433 kts | 336° |
| 2026-04-24 07:49 | -39.12670 | 145.94924 | 34062 ft | 439 kts | 336° |
| 2026-04-24 07:50 | -39.09808 | 145.93489 | 33206 ft | 443 kts | 336° |
| 2026-04-24 07:50 | -39.06924 | 145.92044 | 32489 ft | 444 kts | 336° |
| 2026-04-24 07:50 | -39.04067 | 145.90616 | 31990 ft | 439 kts | 336° |
| 2026-04-24 07:50 | -39.01229 | 145.89199 | 31432 ft | 437 kts | 336° |
| 2026-04-24 07:51 | -38.98403 | 145.87788 | 30879 ft | 434 kts | 336° |
| 2026-04-24 07:51 | -38.95595 | 145.86384 | 30307 ft | 432 kts | 336° |
| 2026-04-24 07:51 | -38.92802 | 145.84986 | 29722 ft | 428 kts | 336° |
| 2026-04-24 07:51 | -38.90040 | 145.83606 | 29178 ft | 424 kts | 336° |
| 2026-04-24 07:52 | -38.87300 | 145.82241 | 28629 ft | 420 kts | 336° |
| 2026-04-24 07:52 | -38.84624 | 145.80906 | 28100 ft | 416 kts | 336° |
| 2026-04-24 07:52 | -38.81937 | 145.79566 | 27565 ft | 413 kts | 336° |
| 2026-04-24 07:52 | -38.79270 | 145.78238 | 27041 ft | 409 kts | 336° |
| 2026-04-24 07:53 | -38.76626 | 145.76923 | 26526 ft | 406 kts | 336° |
| 2026-04-24 07:53 | -38.73988 | 145.75616 | 26016 ft | 403 kts | 337° |
| 2026-04-24 07:53 | -38.71383 | 145.74323 | 25522 ft | 400 kts | 337° |
| 2026-04-24 07:53 | -38.68794 | 145.73038 | 25040 ft | 397 kts | 337° |
| 2026-04-24 07:54 | -38.66217 | 145.71763 | 24569 ft | 395 kts | 337° |
| 2026-04-24 07:54 | -38.63666 | 145.70505 | 24116 ft | 392 kts | 337° |
| 2026-04-24 07:54 | -38.61128 | 145.69253 | 23610 ft | 389 kts | 337° |
| 2026-04-24 07:54 | -38.58616 | 145.68016 | 23167 ft | 385 kts | 338° |
| 2026-04-24 07:55 | -38.56134 | 145.66797 | 22721 ft | 380 kts | 338° |
| 2026-04-24 07:55 | -38.53678 | 145.65591 | 22344 ft | 374 kts | 338° |
| 2026-04-24 07:55 | -38.51256 | 145.64398 | 21783 ft | 374 kts | 338° |
| 2026-04-24 07:55 | -38.48836 | 145.63204 | 21296 ft | 372 kts | 338° |
| 2026-04-24 07:56 | -38.46470 | 145.61912 | 20828 ft | 368 kts | 331° |
| 2026-04-24 07:56 | -38.44232 | 145.60359 | 20373 ft | 365 kts | 330° |
| 2026-04-24 07:56 | -38.42013 | 145.58819 | 19907 ft | 362 kts | 331° |
| 2026-04-24 07:56 | -38.39808 | 145.57291 | 19451 ft | 360 kts | 331° |
| 2026-04-24 07:57 | -38.37614 | 145.55772 | 19001 ft | 358 kts | 331° |
| 2026-04-24 07:57 | -38.35427 | 145.54264 | 18520 ft | 356 kts | 331° |
| 2026-04-24 07:57 | -38.33252 | 145.52767 | 18040 ft | 353 kts | 331° |
| 2026-04-24 07:57 | -38.31098 | 145.51285 | 17591 ft | 350 kts | 331° |
| 2026-04-24 07:58 | -38.28968 | 145.49821 | 17143 ft | 346 kts | 331° |
| 2026-04-24 07:58 | -38.26854 | 145.48373 | 16693 ft | 343 kts | 331° |
| 2026-04-24 07:58 | -38.24760 | 145.46939 | 16258 ft | 340 kts | 331° |
| 2026-04-24 07:58 | -38.22707 | 145.45536 | 15826 ft | 338 kts | 331° |
| 2026-04-24 07:59 | -38.20642 | 145.44125 | 15385 ft | 336 kts | 331° |
| 2026-04-24 07:59 | -38.18588 | 145.42723 | 14952 ft | 334 kts | 331° |
| 2026-04-24 07:59 | -38.16546 | 145.41328 | 14528 ft | 333 kts | 331° |
| 2026-04-24 07:59 | -38.14510 | 145.39935 | 14085 ft | 331 kts | 331° |
| 2026-04-24 08:00 | -38.12489 | 145.38549 | 13634 ft | 329 kts | 331° |
| 2026-04-24 08:00 | -38.10484 | 145.37174 | 13215 ft | 326 kts | 331° |
| 2026-04-24 08:00 | -38.08504 | 145.35820 | 12851 ft | 318 kts | 331° |
| 2026-04-24 08:00 | -38.06572 | 145.34501 | 12149 ft | 313 kts | 331° |
| 2026-04-24 08:01 | -38.04666 | 145.33205 | 11520 ft | 308 kts | 331° |
| 2026-04-24 08:01 | -38.02817 | 145.31949 | 11060 ft | 297 kts | 331° |
| 2026-04-24 08:01 | -38.01003 | 145.30713 | 10438 ft | 294 kts | 331° |
| 2026-04-24 08:01 | -37.99242 | 145.29489 | 10003 ft | 283 kts | 330° |
| 2026-04-24 08:02 | -37.97554 | 145.28304 | 9640 ft | 271 kts | 330° |
| 2026-04-24 08:02 | -37.95939 | 145.27169 | 9305 ft | 260 kts | 330° |
| 2026-04-24 08:02 | -37.94367 | 145.26066 | 8984 ft | 258 kts | 330° |
| 2026-04-24 08:02 | -37.92792 | 145.24961 | 8653 ft | 259 kts | 330° |
| 2026-04-24 08:03 | -37.91215 | 145.23852 | 8327 ft | 259 kts | 330° |
| 2026-04-24 08:03 | -37.89631 | 145.22744 | 7998 ft | 259 kts | 330° |
| 2026-04-24 08:03 | -37.88059 | 145.21648 | 7793 ft | 255 kts | 330° |
| 2026-04-24 08:03 | -37.86528 | 145.20581 | 7627 ft | 248 kts | 330° |
| 2026-04-24 08:04 | -37.85027 | 145.19536 | 7571 ft | 247 kts | 330° |
| 2026-04-24 08:04 | -37.83512 | 145.18488 | 7325 ft | 252 kts | 331° |
| 2026-04-24 08:04 | -37.81973 | 145.17450 | 7055 ft | 252 kts | 331° |
| 2026-04-24 08:04 | -37.80426 | 145.16423 | 6786 ft | 250 kts | 332° |
| 2026-04-24 08:05 | -37.78897 | 145.15410 | 6287 ft | 248 kts | 331° |
| 2026-04-24 08:05 | -37.77375 | 145.14404 | 5805 ft | 245 kts | 331° |
| 2026-04-24 08:05 | -37.75871 | 145.13409 | 5320 ft | 243 kts | 331° |
| 2026-04-24 08:05 | -37.74382 | 145.12421 | 4835 ft | 240 kts | 332° |
| 2026-04-24 08:06 | -37.72930 | 145.11396 | 4245 ft | 240 kts | 325° |
| 2026-04-24 08:06 | -37.71738 | 145.09938 | 3805 ft | 236 kts | 310° |
| 2026-04-24 08:06 | -37.70761 | 145.08356 | 3630 ft | 222 kts | 311° |
| 2026-04-24 08:06 | -37.69825 | 145.06863 | 3520 ft | 212 kts | 312° |
| 2026-04-24 08:07 | -37.68929 | 145.05442 | 3418 ft | 202 kts | 312° |
| 2026-04-24 08:07 | -37.68075 | 145.04086 | 3327 ft | 193 kts | 312° |
| 2026-04-24 08:07 | -37.67366 | 145.02666 | 3146 ft | 194 kts | 294° |
| 2026-04-24 08:07 | -37.67144 | 145.00991 | 2933 ft | 193 kts | 279° |
| 2026-04-24 08:08 | -37.67054 | 144.99324 | 2681 ft | 188 kts | 279° |
| 2026-04-24 08:08 | -37.66967 | 144.97725 | 2425 ft | 179 kts | 280° |
| 2026-04-24 08:08 | -37.66883 | 144.96213 | 2197 ft | 167 kts | 281° |
| 2026-04-24 08:09 | -37.66729 | 144.93505 | 1793 ft | 145 kts | 280° |
| 2026-04-24 08:09 | -37.66656 | 144.92249 | 1598 ft | 143 kts | 279° |
| 2026-04-24 08:09 | -37.66584 | 144.91006 | 1411 ft | 141 kts | 278° |
| 2026-04-24 08:09 | -37.66511 | 144.89759 | 1223 ft | 142 kts | 278° |
| 2026-04-24 08:10 | -37.66440 | 144.88528 | 1031 ft | 141 kts | 279° |
| 2026-04-24 08:10 | -37.66366 | 144.87294 | 910 ft | 141 kts | 278° |
| 2026-04-24 08:10 | -37.66300 | 144.86038 | 698 ft | 143 kts | 277° |
| 2026-04-24 08:10 | -37.66230 | 144.84788 | 476 ft | 142 kts | 277° |
| 2026-04-24 08:11 | -37.66156 | 144.83634 | 411 ft | 111 kts | 274° |
| 2026-04-24 08:11 | -37.66130 | 144.83022 | 409 ft | 35 kts | 261° |
| 2026-04-24 08:11 | -37.66231 | 144.82772 | 396 ft | 25 kts | 241° |
| 2026-04-24 08:11 | -37.66384 | 144.82701 | 389 ft | 29 kts | 155° |
| 2026-04-24 08:12 | -37.66451 | 144.82875 | 386 ft | 22 kts | 93° |
| 2026-04-24 08:12 | -37.66461 | 144.83062 | 393 ft | 22 kts | 94° |
| 2026-04-24 08:12 | -37.66472 | 144.83253 | 399 ft | 22 kts | 94° |
| 2026-04-24 08:12 | -37.66483 | 144.83438 | 403 ft | 19 kts | 94° |
| 2026-04-24 08:13 | -37.66490 | 144.83547 | 404 ft | 0 kts | 94° |
| 2026-04-24 08:14 | -37.66491 | 144.83559 | 404 ft | 6 kts | 94° |
| 2026-04-24 08:14 | -37.66497 | 144.83677 | 405 ft | 18 kts | 94° |
| 2026-04-24 08:14 | -37.66509 | 144.83863 | 404 ft | 24 kts | 95° |
| 2026-04-24 08:15 | -37.66579 | 144.83943 | 401 ft | 15 kts | 174° |
| 2026-04-24 08:15 | -37.66698 | 144.83969 | 396 ft | 20 kts | 159° |
| 2026-04-24 08:15 | -37.66728 | 144.84118 | 394 ft | 19 kts | 103° |
| 2026-04-24 08:15 | -37.66792 | 144.84192 | 392 ft | 20 kts | 154° |
| 2026-04-24 08:16 | -37.67009 | 144.84235 | 386 ft | 27 kts | 171° |
| 2026-04-24 08:16 | -37.67127 | 144.84257 | 383 ft | 25 kts | 172° |
| 2026-04-24 08:16 | -37.67313 | 144.84290 | 379 ft | 29 kts | 171° |
| 2026-04-24 08:16 | -37.67459 | 144.84323 | 376 ft | 14 kts | 150° |
| 2026-04-24 08:17 | -37.67470 | 144.84442 | 378 ft | 15 kts | 82° |
| 2026-04-24 08:17 | -37.67468 | 144.84577 | 380 ft | 16 kts | 102° |
| 2026-04-24 08:17 | -37.67456 | 144.84723 | 381 ft | 18 kts | 81° |
| 2026-04-24 08:17 | -37.67448 | 144.84818 | 382 ft | 6 kts | 112° |
| 2026-04-24 08:18 | -37.67491 | 144.84832 | 380 ft | 4 kts | 173° |
| 2026-04-24 08:18 | -37.67517 | 144.84836 | 380 ft | 2 kts | 172° |